createdAt,value
2019-05-14T00:00:32.258Z,13.20
2019-05-14T00:03:02.467Z,13.27
2019-05-14T00:05:32.285Z,13.50
2019-05-14T00:08:02.463Z,13.63
2019-05-14T00:10:34.016Z,12.23
2019-05-14T00:13:03.445Z,13.00
2019-05-14T00:15:32.981Z,12.90
2019-05-14T00:18:02.564Z,12.80
2019-05-14T00:20:32.361Z,12.60
2019-05-14T00:23:01.797Z,12.47
2019-05-14T00:25:31.492Z,13.00
2019-05-14T00:28:01.474Z,12.80
2019-05-14T00:30:31.707Z,12.40
2019-05-14T00:33:01.588Z,11.90
2019-05-14T00:35:32.494Z,11.90
2019-05-14T00:38:02.247Z,12.50
2019-05-14T00:40:32.184Z,12.60
2019-05-14T00:43:02.672Z,12.27
2019-05-14T00:45:32.437Z,13.20
2019-05-14T00:48:02.270Z,11.83
2019-05-14T00:50:31.874Z,12.27
2019-05-14T00:53:01.998Z,12.10
2019-05-14T00:55:31.857Z,13.17
2019-05-14T00:58:02.395Z,11.40
2019-05-14T01:00:32.397Z,11.10
2019-05-14T01:03:02.219Z,12.50
2019-05-14T01:05:34.923Z,12.87
2019-05-14T01:08:05.072Z,12.60
2019-05-14T01:10:34.672Z,11.50
2019-05-14T01:13:04.175Z,12.30
2019-05-14T01:15:33.926Z,11.87
2019-05-14T01:18:03.456Z,11.93
2019-05-14T01:20:32.894Z,11.37
2019-05-14T01:23:02.461Z,11.77
2019-05-14T01:25:32.024Z,12.80
2019-05-14T01:28:02.078Z,12.33
2019-05-14T01:30:32.113Z,11.37
2019-05-14T01:33:02.037Z,12.13
2019-05-14T01:35:31.838Z,11.80
2019-05-14T01:38:02.681Z,11.97
2019-05-14T01:40:32.498Z,11.90
2019-05-14T01:43:02.721Z,11.23
2019-05-14T01:45:33.006Z,11.50
2019-05-14T01:48:02.609Z,12.50
2019-05-14T01:50:32.366Z,11.90
2019-05-14T01:53:01.920Z,11.60
2019-05-14T01:55:32.472Z,11.70
2019-05-14T01:58:02.491Z,12.20
2019-05-14T02:00:32.147Z,12.17
2019-05-14T02:03:01.891Z,11.93
2019-05-14T02:05:31.668Z,11.97
2019-05-14T02:08:01.851Z,11.90
2019-05-14T02:10:31.957Z,11.90
2019-05-14T02:13:02.047Z,11.53
2019-05-14T02:15:39.216Z,12.50
2019-05-14T02:18:03.086Z,11.70
2019-05-14T02:20:32.594Z,11.60
2019-05-14T02:23:02.036Z,11.60
2019-05-14T02:25:32.030Z,11.60
2019-05-14T02:28:01.843Z,11.70
2019-05-14T02:30:45.775Z,12.13
2019-05-14T02:33:02.588Z,11.70
2019-05-14T02:35:32.121Z,11.30
2019-05-14T02:38:01.689Z,10.63
2019-05-14T02:40:31.226Z,12.20
2019-05-14T02:43:03.555Z,11.83
2019-05-14T02:45:33.539Z,12.30
2019-05-14T02:48:03.142Z,12.00
2019-05-14T02:50:33.211Z,12.63
2019-05-14T02:53:05.767Z,11.40
2019-05-14T02:55:35.586Z,12.03
2019-05-14T02:58:05.153Z,11.57
2019-05-14T03:00:34.853Z,11.53
2019-05-14T03:03:04.384Z,12.40
2019-05-14T03:05:33.902Z,11.60
2019-05-14T03:08:03.586Z,12.20
2019-05-14T03:10:33.406Z,12.43
2019-05-14T03:13:03.037Z,12.97
2019-05-14T03:15:32.618Z,11.50
2019-05-14T03:18:02.293Z,11.33
2019-05-14T03:20:31.928Z,12.03
2019-05-14T03:23:08.476Z,12.03
2019-05-14T03:25:33.065Z,11.50
2019-05-14T03:28:02.668Z,11.63
2019-05-14T03:30:33.158Z,11.30
2019-05-14T03:33:03.700Z,11.63
2019-05-14T03:35:42.046Z,11.73
2019-05-14T03:38:05.093Z,10.43
2019-05-14T03:40:34.728Z,11.30
2019-05-14T03:43:04.406Z,11.30
2019-05-14T03:45:34.019Z,10.77
2019-05-14T03:48:03.961Z,11.20
2019-05-14T03:50:33.817Z,11.30
2019-05-14T03:53:03.459Z,10.93
2019-05-14T03:55:33.142Z,10.40
2019-05-14T03:58:03.202Z,12.33
2019-05-14T04:00:41.459Z,12.30
2019-05-14T04:03:11.700Z,13.37
2019-05-14T04:05:41.477Z,12.20
2019-05-14T04:08:11.766Z,11.80
2019-05-14T04:10:50.570Z,10.40
2019-05-14T04:13:19.578Z,12.13
2019-05-14T04:15:49.936Z,11.40
2019-05-14T04:18:21.402Z,11.50
2019-05-14T04:20:53.454Z,11.20
2019-05-14T04:23:24.182Z,11.07
2019-05-14T04:25:55.473Z,11.83
2019-05-14T04:28:25.250Z,13.67
2019-05-14T04:30:59.367Z,11.87
2019-05-14T04:33:30.416Z,11.93
2019-05-14T04:36:00.164Z,11.50
2019-05-14T04:38:30.327Z,10.67
2019-05-14T04:41:00.349Z,12.23
2019-05-14T04:43:30.573Z,11.80
2019-05-14T04:46:00.138Z,10.33
2019-05-14T04:48:37.123Z,11.50
2019-05-14T04:51:02.321Z,11.10
2019-05-14T04:53:31.981Z,11.40
2019-05-14T04:56:01.481Z,11.30
2019-05-14T04:58:31.346Z,10.27
2019-05-14T05:01:01.052Z,11.03
2019-05-14T05:03:31.682Z,11.80
2019-05-14T05:06:01.443Z,10.60
2019-05-14T05:08:31.274Z,11.60
2019-05-14T05:11:00.883Z,10.70
2019-05-14T05:13:30.571Z,11.63
2019-05-14T05:16:00.104Z,11.40
2019-05-14T05:18:29.892Z,11.40
2019-05-14T05:20:59.591Z,11.07
2019-05-14T05:23:29.107Z,12.10
2019-05-14T05:25:58.786Z,12.07
2019-05-14T05:28:28.573Z,12.10
2019-05-14T05:30:58.718Z,11.43
2019-05-14T05:33:29.395Z,10.90
2019-05-14T05:35:59.585Z,10.07
2019-05-14T05:38:29.510Z,11.30
2019-05-14T05:41:00.313Z,11.47
2019-05-14T05:43:30.413Z,11.47
2019-05-14T05:45:59.914Z,11.00
2019-05-14T05:48:29.432Z,11.27
2019-05-14T05:50:59.390Z,11.17
2019-05-14T05:53:29.300Z,11.80
2019-05-14T05:55:59.413Z,11.80
2019-05-14T05:58:30.609Z,11.50
2019-05-14T06:01:00.215Z,11.70
2019-05-14T06:03:30.523Z,12.30
2019-05-14T06:06:03.256Z,11.07
2019-05-14T06:08:32.798Z,11.60
2019-05-14T06:11:02.582Z,11.00
2019-05-14T06:13:32.203Z,11.37
2019-05-14T06:16:01.804Z,11.10
2019-05-14T06:18:34.517Z,12.30
2019-05-14T06:21:04.362Z,11.27
2019-05-14T06:23:33.865Z,11.70
2019-05-14T06:26:03.452Z,12.00
2019-05-14T06:28:33.681Z,11.87
2019-05-14T06:31:03.311Z,12.37
2019-05-14T06:33:32.885Z,11.50
2019-05-14T06:36:02.499Z,11.60
2019-05-14T06:38:32.018Z,11.50
2019-05-14T06:41:01.588Z,12.00
2019-05-14T06:43:31.171Z,12.00
2019-05-14T06:46:00.817Z,12.87
2019-05-14T06:48:34.645Z,12.30
2019-05-14T06:51:01.877Z,12.80
2019-05-14T06:53:31.458Z,12.20
2019-05-14T06:56:01.864Z,11.97
2019-05-14T06:58:31.466Z,11.23
2019-05-14T07:01:01.368Z,12.40
2019-05-14T07:03:30.955Z,12.10
2019-05-14T07:06:00.705Z,12.93
2019-05-14T07:08:30.233Z,11.43
2019-05-14T07:10:59.840Z,12.30
2019-05-14T07:13:29.449Z,11.80
2019-05-14T07:15:58.951Z,11.07
2019-05-14T07:18:44.958Z,11.83
2019-05-14T07:21:00.034Z,11.77
2019-05-14T07:23:29.558Z,11.00
2019-05-14T07:25:59.385Z,12.40
2019-05-14T07:28:29.361Z,11.20
2019-05-14T07:30:59.443Z,11.57
2019-05-14T07:33:29.538Z,11.63
2019-05-14T07:35:59.493Z,12.00
2019-05-14T07:38:29.117Z,11.70
2019-05-14T07:40:58.783Z,13.13
2019-05-14T07:43:28.805Z,12.20
2019-05-14T07:45:58.732Z,12.60
2019-05-14T07:48:28.846Z,12.50
2019-05-14T07:50:59.946Z,12.50
2019-05-14T07:53:38.509Z,13.40
2019-05-14T07:56:01.255Z,13.10
2019-05-14T07:58:31.115Z,13.40
2019-05-14T08:01:00.692Z,12.50
2019-05-14T08:03:30.278Z,12.80
2019-05-14T08:06:00.015Z,11.80
2019-05-14T08:08:29.699Z,13.10
2019-05-14T08:10:59.424Z,12.47
2019-05-14T08:13:29.287Z,11.70
2019-05-14T08:15:58.810Z,12.77
2019-05-14T08:18:29.250Z,12.93
2019-05-14T08:20:59.368Z,12.43
2019-05-14T08:23:29.018Z,12.53
2019-05-14T08:25:58.821Z,12.47
2019-05-14T08:28:29.129Z,12.90
2019-05-14T08:30:58.820Z,12.67
2019-05-14T08:33:28.981Z,12.00
2019-05-14T08:35:58.896Z,11.70
2019-05-14T08:38:28.605Z,11.97
2019-05-14T08:40:58.899Z,12.60
2019-05-14T08:43:29.349Z,12.63
2019-05-14T08:45:59.417Z,13.03
2019-05-14T08:48:29.779Z,12.57
2019-05-14T08:50:59.500Z,12.83
2019-05-14T08:53:29.165Z,12.70
2019-05-14T08:55:59.050Z,12.20
2019-05-14T08:58:30.072Z,11.80
2019-05-14T09:01:01.353Z,12.13
2019-05-14T09:03:31.446Z,12.90
2019-05-14T09:06:01.403Z,12.13
2019-05-14T09:08:31.012Z,12.43
2019-05-14T09:11:00.651Z,12.17
2019-05-14T09:13:30.232Z,12.80
2019-05-14T09:15:59.818Z,12.27
2019-05-14T09:18:29.442Z,12.83
2019-05-14T09:20:58.959Z,14.10
2019-05-14T09:23:28.883Z,13.17
2019-05-14T09:25:59.029Z,13.90
2019-05-14T09:28:28.723Z,12.73
2019-05-14T09:30:59.586Z,14.03
2019-05-14T09:33:29.857Z,13.50
2019-05-14T09:36:11.073Z,13.80
2019-05-14T09:38:30.821Z,12.90
2019-05-14T09:41:10.673Z,14.17
2019-05-14T09:43:31.752Z,13.70
2019-05-14T09:46:01.360Z,13.20
2019-05-14T09:48:30.907Z,13.20
2019-05-14T09:51:00.692Z,13.37
2019-05-14T09:53:30.201Z,13.47
2019-05-14T09:56:00.329Z,13.07
2019-05-14T09:58:29.842Z,13.10
2019-05-14T10:00:59.653Z,13.60
2019-05-14T10:03:29.385Z,12.83
2019-05-14T10:05:59.182Z,13.70
2019-05-14T10:08:28.886Z,14.00
2019-05-14T10:11:00.314Z,13.70
2019-05-14T10:13:30.459Z,13.50
2019-05-14T10:16:00.121Z,14.27
2019-05-14T10:18:30.020Z,15.83
2019-05-14T10:20:59.533Z,13.70
2019-05-14T10:23:29.140Z,13.80
2019-05-14T10:25:58.977Z,13.20
2019-05-14T10:28:28.980Z,14.20
2019-05-14T10:30:59.924Z,13.87
2019-05-14T10:33:29.865Z,14.23
2019-05-14T10:35:59.423Z,14.83
2019-05-14T10:38:29.703Z,15.20
2019-05-14T10:41:03.096Z,15.60
2019-05-14T10:43:32.612Z,14.20
2019-05-14T10:46:02.877Z,15.17
2019-05-14T10:48:32.427Z,14.20
2019-05-14T10:51:03.832Z,15.10
2019-05-14T10:53:33.124Z,14.77
2019-05-14T10:56:03.044Z,14.67
2019-05-14T10:58:51.840Z,14.90
2019-05-14T11:01:23.062Z,13.93
2019-05-14T11:03:52.757Z,14.40
2019-05-14T11:06:22.333Z,14.73
2019-05-14T11:08:51.983Z,15.07
2019-05-14T11:11:21.968Z,14.73
2019-05-14T11:13:51.807Z,14.20
2019-05-14T11:16:21.499Z,14.23
2019-05-14T11:18:51.018Z,14.23
2019-05-14T11:21:26.381Z,14.17
2019-05-14T11:23:52.108Z,14.87
2019-05-14T11:26:24.644Z,14.83
2019-05-14T11:28:52.967Z,14.60
2019-05-14T11:31:22.898Z,14.70
2019-05-14T11:33:52.412Z,15.97
2019-05-14T11:36:21.940Z,13.40
2019-05-14T11:38:51.604Z,13.50
2019-05-14T11:41:21.262Z,14.10
2019-05-14T11:43:50.804Z,13.80
2019-05-14T11:46:33.025Z,14.70
2019-05-14T11:48:52.093Z,14.30
2019-05-14T11:51:46.079Z,14.03
2019-05-14T11:53:52.908Z,14.50
2019-05-14T11:56:22.418Z,14.37
2019-05-14T11:58:52.082Z,14.93
2019-05-14T12:01:21.859Z,15.10
2019-05-14T12:03:51.453Z,13.70
2019-05-14T12:06:21.058Z,13.93
2019-05-14T12:08:50.686Z,13.43
2019-05-14T12:11:20.469Z,14.33
2019-05-14T12:13:49.928Z,15.07
2019-05-14T12:16:19.681Z,15.10
2019-05-14T12:18:49.376Z,14.33
2019-05-14T12:21:19.252Z,14.30
2019-05-14T12:23:48.894Z,13.40
2019-05-14T12:26:19.069Z,14.50
2019-05-14T12:28:49.572Z,14.50
2019-05-14T12:31:19.337Z,14.13
2019-05-14T12:33:49.042Z,14.47
2019-05-14T12:36:19.640Z,16.10
2019-05-14T12:38:50.311Z,15.13
2019-05-14T12:41:20.029Z,14.73
2019-05-14T12:43:49.619Z,15.53
2019-05-14T12:46:20.183Z,14.50
2019-05-14T12:48:49.895Z,14.83
2019-05-14T12:51:19.461Z,14.40
2019-05-14T12:53:49.087Z,14.97
2019-05-14T12:56:19.017Z,15.27
2019-05-14T12:58:49.079Z,15.00
2019-05-14T13:01:20.105Z,15.57
2019-05-14T13:03:50.160Z,16.13
2019-05-14T13:06:22.275Z,14.80
2019-05-14T13:08:53.698Z,15.03
2019-05-14T13:11:23.436Z,15.00
2019-05-14T13:13:53.237Z,15.40
2019-05-14T13:16:22.924Z,14.30
2019-05-14T13:18:52.438Z,13.73
2019-05-14T13:21:22.292Z,13.83
2019-05-14T13:23:51.911Z,13.70
2019-05-14T13:26:21.427Z,13.27
2019-05-14T13:28:51.244Z,13.67
2019-05-14T13:31:20.800Z,14.73
2019-05-14T13:33:50.645Z,14.83
2019-05-14T13:36:22.186Z,15.60
2019-05-14T13:38:51.965Z,14.97
2019-05-14T13:41:21.499Z,15.07
2019-05-14T13:43:51.086Z,14.23
2019-05-14T13:46:20.648Z,14.07
2019-05-14T13:48:50.619Z,14.30
2019-05-14T13:51:20.148Z,13.27
2019-05-14T13:53:50.117Z,13.80
2019-05-14T13:56:19.749Z,13.60
2019-05-14T13:58:49.342Z,13.67
2019-05-14T14:01:19.660Z,15.73
2019-05-14T14:04:04.743Z,15.57
2019-05-14T14:06:21.106Z,15.07
2019-05-14T14:08:50.620Z,14.13
2019-05-14T14:11:20.077Z,14.50
2019-05-14T14:13:49.630Z,13.73
2019-05-14T14:16:19.963Z,13.20
2019-05-14T14:18:50.279Z,13.33
2019-05-14T14:21:20.107Z,13.10
2019-05-14T14:23:50.001Z,13.37
2019-05-14T14:26:19.578Z,12.80
2019-05-14T14:28:49.645Z,13.03
2019-05-14T14:31:19.367Z,14.00
2019-05-14T14:33:49.172Z,13.47
2019-05-14T14:36:19.913Z,13.87
2019-05-14T14:38:50.035Z,13.83
2019-05-14T14:41:19.804Z,13.30
2019-05-14T14:43:53.722Z,13.27
2019-05-14T14:46:20.944Z,13.83
2019-05-14T14:48:50.478Z,13.70
2019-05-14T14:51:20.078Z,13.57
2019-05-14T14:53:58.806Z,14.73
2019-05-14T14:56:21.002Z,14.13
2019-05-14T14:58:50.825Z,13.87
2019-05-14T15:01:20.488Z,13.83
2019-05-14T15:03:50.593Z,13.40
2019-05-14T15:06:20.852Z,13.50
2019-05-14T15:08:51.006Z,13.20
2019-05-14T15:11:20.592Z,14.03
2019-05-14T15:13:50.194Z,14.00
2019-05-14T15:16:20.310Z,13.40
2019-05-14T15:18:50.106Z,14.77
2019-05-14T15:21:19.742Z,14.67
2019-05-14T15:24:06.060Z,15.30
2019-05-14T15:26:20.673Z,14.83
2019-05-14T15:28:50.143Z,15.80
2019-05-14T15:31:19.871Z,14.93
2019-05-14T15:33:50.960Z,14.83
2019-05-14T15:36:20.761Z,14.63
2019-05-14T15:38:50.655Z,15.37
2019-05-14T15:41:20.655Z,14.17
2019-05-14T15:43:50.327Z,15.07
2019-05-14T15:46:19.891Z,15.23
2019-05-14T15:48:49.407Z,15.53
2019-05-14T15:51:19.803Z,14.90
2019-05-14T15:54:05.570Z,14.93
2019-05-14T15:56:21.286Z,14.50
2019-05-14T15:58:51.046Z,14.77
2019-05-14T16:01:20.698Z,14.70
2019-05-14T16:03:50.286Z,14.80
2019-05-14T16:06:19.803Z,14.70
2019-05-14T16:08:49.362Z,14.03
2019-05-14T16:11:18.953Z,13.90
2019-05-14T16:13:49.308Z,14.57
2019-05-14T16:16:19.704Z,14.50
2019-05-14T16:18:49.790Z,14.90
2019-05-14T16:21:21.021Z,13.53
2019-05-14T16:23:50.581Z,14.03
2019-05-14T16:26:20.192Z,13.47
2019-05-14T16:28:51.329Z,14.60
2019-05-14T16:31:21.273Z,14.47
2019-05-14T16:33:50.738Z,13.60
2019-05-14T16:36:20.266Z,14.07
2019-05-14T16:38:49.889Z,14.40
2019-05-14T16:41:19.415Z,13.90
2019-05-14T16:43:49.628Z,13.87
2019-05-14T16:46:19.502Z,14.43
2019-05-14T16:48:49.170Z,15.07
2019-05-14T16:51:19.480Z,14.00
2019-05-14T16:53:49.240Z,14.40
2019-05-14T16:56:19.277Z,13.67
2019-05-14T16:58:48.961Z,14.03
2019-05-14T17:01:19.377Z,14.10
2019-05-14T17:03:49.783Z,13.90
2019-05-14T17:06:19.638Z,13.80
2019-05-14T17:08:49.344Z,14.30
2019-05-14T17:11:19.107Z,14.27
2019-05-14T17:13:49.108Z,13.70
2019-05-14T17:16:19.664Z,13.53
2019-05-14T17:18:49.302Z,13.63
2019-05-14T17:21:18.888Z,14.50
2019-05-14T17:23:48.995Z,13.80
2019-05-14T17:26:19.112Z,13.60
2019-05-14T17:28:49.090Z,13.43
2019-05-14T17:31:19.241Z,14.27
2019-05-14T17:33:49.369Z,14.10
2019-05-14T17:36:19.111Z,13.63
2019-05-14T17:38:49.407Z,14.53
2019-05-14T17:41:19.647Z,13.97
2019-05-14T17:43:49.590Z,13.87
2019-05-14T17:46:19.210Z,13.13
2019-05-14T17:48:48.926Z,13.57
2019-05-14T17:51:18.487Z,13.53
2019-05-14T17:53:48.337Z,14.27
2019-05-14T17:56:19.068Z,13.77
2019-05-14T17:58:49.212Z,13.70
2019-05-14T18:01:18.983Z,13.07
2019-05-14T18:03:49.299Z,13.50
2019-05-14T18:06:19.155Z,12.97
2019-05-14T18:08:48.726Z,14.55
2019-05-14T18:11:19.134Z,13.60
2019-05-14T18:13:48.913Z,13.40
2019-05-14T18:16:19.299Z,13.93
2019-05-14T18:18:49.561Z,12.77
2019-05-14T18:21:19.382Z,13.07
2019-05-14T18:23:49.333Z,13.40
2019-05-14T18:26:19.134Z,13.53
2019-05-14T18:28:48.616Z,14.90
2019-05-14T18:31:20.129Z,13.87
2019-05-14T18:33:49.935Z,13.57
2019-05-14T18:36:19.596Z,14.07
2019-05-14T18:38:49.557Z,13.90
2019-05-14T18:41:19.481Z,13.47
2019-05-14T18:43:49.095Z,13.50
2019-05-14T18:46:19.203Z,13.90
2019-05-14T18:48:49.141Z,13.97
2019-05-14T18:51:19.558Z,14.10
2019-05-14T18:53:49.626Z,13.67
2019-05-14T18:56:23.871Z,14.47
2019-05-14T18:58:51.120Z,13.90
2019-05-14T19:01:40.045Z,13.67
2019-05-14T19:04:09.573Z,13.73
2019-05-14T19:06:39.171Z,13.57
2019-05-14T19:09:10.687Z,13.30
2019-05-14T19:11:40.314Z,14.67
2019-05-14T19:14:10.222Z,14.00
2019-05-14T19:16:39.766Z,13.47
2019-05-14T19:19:09.399Z,14.40
2019-05-14T19:21:39.089Z,13.77
2019-05-14T19:24:09.114Z,14.63
2019-05-14T19:26:40.466Z,14.10
2019-05-14T19:29:09.974Z,14.50
2019-05-14T19:31:39.529Z,14.43
2019-05-14T19:34:09.195Z,14.63
2019-05-14T19:36:39.898Z,14.50
2019-05-14T19:39:10.083Z,14.17
2019-05-14T19:41:39.867Z,13.57
2019-05-14T19:44:09.481Z,13.80
2019-05-14T19:46:39.448Z,14.43
2019-05-14T19:49:09.186Z,13.33
2019-05-14T19:51:38.924Z,13.43
2019-05-14T19:54:08.542Z,13.70
2019-05-14T19:56:51.858Z,14.10
2019-05-14T19:59:09.379Z,13.47
2019-05-14T20:01:39.003Z,13.20
2019-05-14T20:04:09.547Z,13.57
2019-05-14T20:06:39.320Z,13.67
2019-05-14T20:09:09.560Z,13.37
2019-05-14T20:11:39.908Z,14.00
2019-05-14T20:14:09.979Z,14.43
2019-05-14T20:16:39.527Z,13.57
2019-05-14T20:19:09.051Z,14.37
2019-05-14T20:21:39.111Z,13.37
2019-05-14T20:24:08.914Z,13.87
2019-05-14T20:26:39.095Z,13.60
2019-05-14T20:29:08.981Z,12.63
2019-05-14T20:31:39.094Z,13.13
2019-05-14T20:34:08.726Z,12.83
2019-05-14T20:36:39.036Z,13.17
2019-05-14T20:39:08.889Z,12.67
2019-05-14T20:41:38.785Z,12.20
2019-05-14T20:44:08.691Z,13.20
2019-05-14T20:46:38.469Z,12.57
2019-05-14T20:49:08.775Z,13.57
2019-05-14T20:51:39.011Z,12.53
2019-05-14T20:54:08.997Z,13.30
2019-05-14T20:56:40.324Z,12.90
2019-05-14T20:59:10.327Z,12.27
2019-05-14T21:01:40.082Z,13.13
2019-05-14T21:04:09.736Z,13.23
2019-05-14T21:06:39.294Z,12.70
2019-05-14T21:09:08.964Z,13.40
2019-05-14T21:11:38.708Z,20.77
2019-05-14T21:14:08.936Z,13.07
2019-05-14T21:16:39.367Z,12.27
2019-05-14T21:19:09.000Z,13.03
2019-05-14T21:21:38.595Z,12.50
2019-05-14T21:24:08.815Z,12.73
2019-05-14T21:26:40.143Z,13.30
2019-05-14T21:29:09.909Z,13.10
2019-05-14T21:31:39.480Z,12.77
2019-05-14T21:34:08.994Z,13.40
2019-05-14T21:36:39.306Z,13.13
2019-05-14T21:39:09.214Z,13.17
2019-05-14T21:41:39.102Z,13.47
2019-05-14T21:44:09.010Z,13.10
2019-05-14T21:46:39.876Z,13.83
2019-05-14T21:49:11.128Z,12.90
2019-05-14T21:51:41.186Z,13.73
2019-05-14T21:54:10.793Z,13.23
2019-05-14T21:56:40.704Z,13.00
2019-05-14T21:59:10.223Z,13.30
2019-05-14T22:01:39.844Z,12.97
2019-05-14T22:04:11.623Z,12.33
2019-05-14T22:06:41.188Z,13.30
2019-05-14T22:09:11.532Z,12.73
2019-05-14T22:11:41.059Z,13.00
2019-05-14T22:14:10.571Z,13.30
2019-05-14T22:16:40.522Z,12.97
2019-05-14T22:19:10.333Z,12.57
2019-05-14T22:21:41.906Z,13.00
2019-05-14T22:24:11.060Z,13.10
2019-05-14T22:26:40.584Z,12.90
2019-05-14T22:29:10.408Z,13.70
2019-05-14T22:31:39.973Z,12.40
2019-05-14T22:34:09.488Z,16.23
2019-05-14T22:36:38.979Z,13.07
2019-05-14T22:39:08.630Z,13.03
2019-05-14T22:41:38.467Z,12.70
2019-05-14T22:44:09.614Z,12.73
2019-05-14T22:46:40.342Z,12.00
2019-05-14T22:49:10.088Z,12.53
2019-05-14T22:51:39.677Z,12.20
2019-05-14T22:54:09.295Z,11.83
2019-05-14T22:56:39.152Z,12.63
2019-05-14T22:59:09.086Z,12.40
2019-05-14T23:01:38.970Z,12.57
2019-05-14T23:04:09.163Z,12.27
2019-05-14T23:06:38.672Z,11.80
2019-05-14T23:09:09.071Z,12.40
2019-05-14T23:11:38.855Z,12.70
2019-05-14T23:14:08.314Z,12.70
2019-05-14T23:16:41.865Z,12.13
2019-05-14T23:19:09.700Z,12.43
2019-05-14T23:21:39.511Z,12.47
2019-05-14T23:24:09.412Z,11.93
2019-05-14T23:26:39.050Z,12.50
2019-05-14T23:29:09.882Z,12.97
2019-05-14T23:31:39.495Z,12.37
2019-05-14T23:34:09.387Z,11.80
2019-05-14T23:36:38.988Z,11.97
2019-05-14T23:39:08.935Z,13.10
2019-05-14T23:41:38.747Z,12.30
2019-05-14T23:44:08.526Z,13.17
2019-05-14T23:46:38.119Z,11.30
2019-05-14T23:49:08.897Z,12.40
2019-05-14T23:51:38.712Z,12.10
2019-05-14T23:54:08.950Z,11.60
2019-05-14T23:56:38.688Z,11.60
2019-05-14T23:59:09.275Z,12.17
